»·PEaware :: QXE2188 KSEA-KMFR

QXE2188 :: KSEA-KMFR

FLIGHT INFORMATION

Flight Status: Arrived
Operator:
Horizon Air
More flights by this operator :: More flights under this callsign
Pilot: Matthew M. (8235)
Aircraft: DEHAVILLAND DASH 8 400
(DH8D)
More flights by this aircraft type
Origin: KSEA Seattle-Tacoma Intl
United States
Destination: KMFR Rogue Valley Intl-Medford
United States
More flights between these airports :: More routes between these airports
Route: SEA8 ALDER J1 BTG HISKU
File this flight plan on PilotEdge
Remarks:
Altitude:
(Current/Filed)
25,000ft
Speed:
(Current/Filed)
328kts
Departed: 04-Aug-22 12:56 PM
Arrived: 04-Aug-22 02:14 PM
Distance/Time
Traveled:
306nm/1:18
Distance/Time
To Go:
Arrived

Flight Plot

Page will automatically refresh every two minutes.

Flight plan parsing failed; only flown route is shown


Map Options




Map Legend


Flown Route
Filed Route
Departure Airport
Arrival Airport
Navaid (VOR, NDB)
Fix

Horizontal Profiles

Position Reports

Time Latitude Longitude Heading Altitude Ground
Speed
04-Aug-22 12:31 47.446000 -122.304674 89 337ft 0kts
04-Aug-22 12:32 47.446000 -122.304674 89 337ft 0kts
04-Aug-22 12:33 47.446000 -122.304674 89 337ft 0kts
04-Aug-22 12:34 47.446000 -122.304675 89 337ft 0kts
04-Aug-22 12:35 47.446000 -122.304675 89 337ft 0kts
04-Aug-22 12:36 47.446000 -122.304675 89 337ft 0kts
04-Aug-22 12:37 47.446000 -122.304675 89 337ft 0kts
04-Aug-22 12:38 47.446000 -122.304675 89 337ft 0kts
04-Aug-22 12:39 47.446000 -122.304675 89 337ft 0kts
04-Aug-22 12:40 47.446000 -122.304675 89 337ft 0kts
04-Aug-22 12:41 47.446000 -122.304675 89 337ft 0kts
04-Aug-22 12:42 47.446000 -122.304675 89 337ft 0kts
04-Aug-22 12:43 47.446000 -122.304675 89 337ft 0kts
04-Aug-22 12:44 47.446000 -122.304675 89 337ft 0kts
04-Aug-22 12:45 47.446000 -122.304675 89 337ft 0kts
04-Aug-22 12:46 47.446000 -122.304675 89 337ft 0kts
04-Aug-22 12:47 47.446000 -122.304675 89 337ft 0kts
04-Aug-22 12:48 47.446000 -122.304675 89 337ft 0kts
04-Aug-22 12:49 47.446000 -122.304675 89 337ft 0kts
04-Aug-22 12:50 47.446000 -122.304675 89 337ft 0kts
04-Aug-22 12:51 47.446000 -122.304675 89 337ft 0kts
04-Aug-22 12:52 47.446000 -122.304675 89 337ft 0kts
04-Aug-22 12:53 47.445823 -122.304932 225 337ft 7kts
04-Aug-22 12:54 47.443579 -122.306598 238 337ft 1kts
04-Aug-22 12:55 47.449059 -122.307810 358 337ft 107kts
04-Aug-22 12:56 47.493050 -122.311998 351 1995ft 175kts
04-Aug-22 12:57 47.540243 -122.336747 291 3778ft 212kts
04-Aug-22 12:58 47.549827 -122.426953 276 6082ft 227kts
04-Aug-22 12:59 47.515796 -122.486529 187 8361ft 231kts
04-Aug-22 13:00 47.449805 -122.478809 180 10547ft 245kts
04-Aug-22 13:01 47.380565 -122.470943 184 12523ft 255kts
04-Aug-22 13:02 47.309035 -122.463545 185 14292ft 262kts
04-Aug-22 13:03 47.235947 -122.456004 186 15884ft 267kts
04-Aug-22 13:04 47.161431 -122.448404 187 17335ft 270kts
04-Aug-22 13:05 47.085722 -122.440762 188 18632ft 274kts
04-Aug-22 13:06 47.009357 -122.433058 188 19842ft 276kts
04-Aug-22 13:07 46.932667 -122.425358 189 20823ft 277kts
04-Aug-22 13:08 46.855656 -122.417555 189 21845ft 272kts
04-Aug-22 13:09 46.784376 -122.419756 201 23070ft 245kts
04-Aug-22 13:10 46.717457 -122.431586 201 24017ft 241kts
04-Aug-22 13:11 46.651326 -122.442739 201 24813ft 237kts
04-Aug-22 13:12 46.584056 -122.454268 201 24997ft 255kts
04-Aug-22 13:13 46.510756 -122.466565 199 24996ft 276kts
04-Aug-22 13:14 46.432303 -122.479558 199 24996ft 291kts
04-Aug-22 13:15 46.350461 -122.493005 198 25112ft 297kts
04-Aug-22 13:16 46.267225 -122.506741 198 25128ft 304kts
04-Aug-22 13:17 46.182947 -122.520599 198 25128ft 307kts
04-Aug-22 13:18 46.098338 -122.534436 198 25127ft 306kts
04-Aug-22 13:19 46.014249 -122.548191 198 25127ft 303kts
04-Aug-22 13:20 45.930732 -122.561834 198 25128ft 302kts
04-Aug-22 13:21 45.847346 -122.575423 198 25128ft 302kts
04-Aug-22 13:22 45.762493 -122.589289 197 25003ft 311kts
04-Aug-22 13:23 45.678515 -122.611091 202 25000ft 307kts
04-Aug-22 13:24 45.594673 -122.635773 202 25000ft 309kts
04-Aug-22 13:25 45.510151 -122.660105 201 25001ft 312kts
04-Aug-22 13:26 45.425137 -122.684377 201 25107ft 309kts
04-Aug-22 13:27 45.341258 -122.708299 201 25118ft 308kts
04-Aug-22 13:28 45.257364 -122.732166 200 25117ft 308kts
04-Aug-22 13:29 45.173482 -122.755943 200 25118ft 308kts
04-Aug-22 13:30 45.089427 -122.779707 200 25116ft 309kts
04-Aug-22 13:31 45.005259 -122.803426 200 25107ft 309kts
04-Aug-22 13:32 44.921245 -122.827026 200 25100ft 309kts
04-Aug-22 13:33 44.836998 -122.850625 200 25100ft 309kts
04-Aug-22 13:34 44.752890 -122.874119 200 25100ft 310kts
04-Aug-22 13:35 44.667961 -122.897833 199 25009ft 316kts
04-Aug-22 13:36 44.581262 -122.921895 199 25001ft 320kts
04-Aug-22 13:37 44.493675 -122.944998 194 24995ft 326kts
04-Aug-22 13:38 44.402421 -122.948475 190 25000ft 330kts
04-Aug-22 13:39 44.310491 -122.951927 190 24999ft 331kts
04-Aug-22 13:40 44.218651 -122.955446 190 25000ft 331kts
04-Aug-22 13:41 44.126659 -122.959076 190 25000ft 331kts
04-Aug-22 13:42 44.034719 -122.962701 190 25000ft 331kts
04-Aug-22 13:43 43.942877 -122.966318 188 25000ft 332kts
04-Aug-22 13:44 43.851200 -122.969913 188 24999ft 332kts
04-Aug-22 13:45 43.758913 -122.973519 188 25000ft 333kts
04-Aug-22 13:46 43.666210 -122.977184 188 25000ft 334kts
04-Aug-22 13:47 43.573194 -122.980788 188 24999ft 334kts
04-Aug-22 13:48 43.480502 -122.984376 188 25000ft 335kts
04-Aug-22 13:49 43.387664 -122.987952 187 25000ft 334kts
04-Aug-22 13:50 43.294751 -122.991525 187 24999ft 334kts
04-Aug-22 13:51 43.201860 -122.995086 187 24999ft 334kts
04-Aug-22 13:52 43.110082 -122.998492 187 24241ft 315kts
04-Aug-22 13:53 43.029668 -123.001262 188 22950ft 264kts
04-Aug-22 13:54 42.956308 -123.004408 187 21796ft 284kts
04-Aug-22 13:55 42.874296 -123.007598 187 20464ft 310kts
04-Aug-22 13:56 42.788858 -123.010807 186 19073ft 326kts
04-Aug-22 13:57 42.697430 -123.014228 186 17594ft 332kts
04-Aug-22 13:58 42.616346 -122.958564 133 15927ft 359kts
04-Aug-22 13:59 42.556993 -122.851728 130 14327ft 348kts
04-Aug-22 14:00 42.504422 -122.755268 131 12888ft 292kts
04-Aug-22 14:01 42.459616 -122.673323 131 11678ft 256kts
04-Aug-22 14:02 42.418794 -122.599037 130 10573ft 235kts
04-Aug-22 14:03 42.378549 -122.535821 146 9567ft 209kts
04-Aug-22 14:04 42.324938 -122.508642 176 8653ft 211kts
04-Aug-22 14:05 42.267132 -122.524187 207 7683ft 219kts
04-Aug-22 14:06 42.223355 -122.582052 241 6671ft 228kts
04-Aug-22 14:07 42.211108 -122.664479 275 5627ft 223kts
04-Aug-22 14:08 42.233510 -122.740110 300 4583ft 217kts
04-Aug-22 14:09 42.266444 -122.803776 315 3450ft 190kts
04-Aug-22 14:10 42.308700 -122.838557 340 2511ft 175kts
04-Aug-22 14:11 42.347264 -122.858651 338 1726ft 145kts
04-Aug-22 14:12 42.377686 -122.874700 336 1315ft 48kts
04-Aug-22 14:13 42.380331 -122.877567 210 1312ft 6kts
04-Aug-22 14:14 42.377645 -122.876290 157 1315ft 13kts
04-Aug-22 14:15 42.373617 -122.874217 158 1319ft 11kts
04-Aug-22 14:16 42.371484 -122.873090 158 1322ft 10kts
04-Aug-22 14:17 42.368117 -122.872747 191 1325ft 7kts
04-Aug-22 14:18 42.368063 -122.872759 188 1325ft 0kts
04-Aug-22 14:19 42.368063 -122.872759 188 1325ft 0kts
04-Aug-22 14:20 42.368063 -122.872759 188 1325ft 0kts

Navigation Log

Ident Type
Flight plan parsing failed, navigation log unavailable